Time;durP1;ratioP1;P1;durP2;ratioP2;P2;SDS_P1;SDS_P2;PMS_P1;PMS_P2;Temp;Humidity;BMP_temperature;BMP_pressure;BME280_temperature;BME280_humidity;BME280_pressure;Samples;Min_cycle;Max_cycle;Signal;HPM_P1;HPM_P2
2022/03/09 06:39:19;;;;;;;7.53;3.13;;;9.30;99.90;;;;;;5176743;27;20410;-78
2022/03/09 06:41:54;;;;;;;15.38;5.35;;;8.90;99.90;;;;;;5168995;27;20038;-79
2022/03/09 06:44:22;;;;;;;15.18;4.45;;;9.10;99.90;;;;;;5167140;27;20113;-77
2022/03/09 06:46:48;;;;;;;14.00;5.28;;;9.20;99.90;;;;;;5166840;27;20075;-78
2022/03/09 06:49:14;;;;;;;14.80;4.88;;;9.40;99.90;;;;;;5159364;27;20026;-78
2022/03/09 06:51:40;;;;;;;14.63;4.43;;;9.50;99.90;;;;;;5163700;27;20030;-77
2022/03/09 06:54:05;;;;;;;14.98;5.05;;;9.60;99.90;;;;;;5166912;27;20037;-77
2022/03/09 06:56:31;;;;;;;9.98;4.80;;;9.60;99.90;;;;;;5148327;27;20019;-77
2022/03/09 06:58:57;;;;;;;10.98;4.72;;;9.70;99.90;;;;;;5166072;27;20026;-77
2022/03/09 07:01:23;;;;;;;8.45;4.20;;;9.70;99.90;;;;;;5167034;27;20391;-77
2022/03/09 07:03:48;;;;;;;17.55;5.85;;;9.80;99.90;;;;;;5164788;27;20033;-75
2022/03/09 07:06:14;;;;;;;13.82;5.53;;;9.80;99.90;;;;;;5165507;27;20070;-75
2022/03/09 07:08:40;;;;;;;14.77;5.60;;;9.90;99.90;;;;;;5168123;27;20022;-77
2022/03/09 07:11:06;;;;;;;16.38;4.68;;;9.90;99.90;;;;;;5165190;27;20031;-77
2022/03/09 07:13:31;;;;;;;11.32;4.35;;;10.00;99.90;;;;;;5164198;27;20022;-77
2022/03/09 07:15:57;;;;;;;13.18;4.18;;;10.00;99.90;;;;;;5166862;27;20049;-75
2022/03/09 07:18:23;;;;;;;9.13;3.58;;;10.10;99.90;;;;;;5164692;27;20105;-77
2022/03/09 07:20:49;;;;;;;15.35;4.68;;;10.10;99.90;;;;;;5149973;27;20138;-77
2022/03/09 07:23:14;;;;;;;8.88;4.10;;;10.20;99.90;;;;;;5148001;27;20533;-77
2022/03/09 07:25:42;;;;;;;10.32;4.10;;;10.20;99.90;;;;;;5164392;27;20103;-76
2022/03/09 07:28:08;;;;;;;11.00;3.65;;;10.20;99.90;;;;;;5163841;27;20037;-77
2022/03/09 07:30:35;;;;;;;14.50;3.65;;;10.50;99.90;;;;;;5164422;27;20019;-77
2022/03/09 07:33:00;;;;;;;10.43;3.30;;;10.90;99.90;;;;;;5167076;27;20034;-75
2022/03/09 07:35:26;;;;;;;11.75;3.53;;;12.20;99.90;;;;;;5147112;27;20066;-75
2022/03/09 07:37:52;;;;;;;15.70;3.90;;;13.60;98.40;;;;;;5164073;27;20133;-74
2022/03/09 07:40:18;;;;;;;10.43;3.97;;;13.20;98.70;;;;;;5164303;27;20122;-74
2022/03/09 07:42:44;;;;;;;14.65;4.25;;;12.70;99.90;;;;;;5164275;27;20027;-74
2022/03/09 07:45:10;;;;;;;13.05;4.32;;;12.90;99.40;;;;;;5165415;27;20109;-74
2022/03/09 07:47:36;;;;;;;12.10;4.25;;;13.00;98.70;;;;;;5166816;27;20053;-74
2022/03/09 07:50:03;;;;;;;15.30;4.05;;;12.80;99.00;;;;;;5155533;27;20071;-74
2022/03/09 07:52:29;;;;;;;6.53;3.05;;;13.30;97.70;;;;;;5151927;27;20156;-74
2022/03/09 07:54:55;;;;;;;11.90;5.13;;;13.80;94.50;;;;;;5150219;27;20049;-74
2022/03/09 07:57:20;;;;;;;11.20;3.50;;;13.80;94.00;;;;;;5131611;27;20022;-74
2022/03/09 07:59:46;;;;;;;17.48;3.63;;;14.20;92.90;;;;;;5153992;27;20030;-74
2022/03/09 08:02:12;;;;;;;10.90;3.10;;;14.00;93.20;;;;;;5149979;27;20416;-74
2022/03/09 08:04:39;;;;;;;9.35;3.42;;;13.60;94.20;;;;;;5149822;27;20420;-74
2022/03/09 08:07:04;;;;;;;8.70;2.75;;;13.20;96.20;;;;;;5149667;27;20029;-76
2022/03/09 08:09:30;;;;;;;10.30;3.15;;;12.90;97.10;;;;;;5150009;27;20035;-74
2022/03/09 08:11:56;;;;;;;10.50;4.20;;;12.60;98.80;;;;;;5152516;27;20071;-74
2022/03/09 08:14:22;;;;;;;7.35;2.00;;;12.30;99.90;;;;;;5152724;27;20071;-74
2022/03/09 08:16:48;;;;;;;12.93;3.17;;;12.10;99.90;;;;;;5150328;27;20019;-75
2022/03/09 08:19:14;;;;;;;6.30;2.30;;;12.00;99.90;;;;;;5149469;27;20034;-74
2022/03/09 08:21:40;;;;;;;9.32;2.70;;;12.00;99.90;;;;;;5149497;27;20088;-74
2022/03/09 08:24:06;;;;;;;8.15;2.70;;;12.00;99.90;;;;;;5151606;27;20037;-77
2022/03/09 08:26:32;;;;;;;15.52;2.97;;;11.90;99.90;;;;;;5151317;27;20072;-77
2022/03/09 08:28:58;;;;;;;11.45;3.22;;;11.90;99.90;;;;;;5150255;27;20038;-77
2022/03/09 08:31:24;;;;;;;10.30;2.67;;;11.90;99.90;;;;;;5149394;27;20497;-75
2022/03/09 08:33:50;;;;;;;9.32;2.95;;;11.90;99.90;;;;;;5149181;27;20027;-74
2022/03/09 08:36:15;;;;;;;10.57;2.85;;;11.80;99.90;;;;;;5132687;27;20042;-77
2022/03/09 08:38:41;;;;;;;16.10;3.78;;;11.80;99.90;;;;;;5152990;27;20589;-77
2022/03/09 08:41:07;;;;;;;9.27;3.20;;;12.00;99.90;;;;;;5148928;27;20038;-74
2022/03/09 08:43:33;;;;;;;8.15;3.42;;;12.70;98.70;;;;;;5149360;27;20038;-75
2022/03/09 08:45:58;;;;;;;13.77;4.05;;;14.10;94.60;;;;;;5149114;27;20023;-75
2022/03/09 08:48:27;;;;;;;7.70;2.83;;;16.00;85.60;;;;;;5150804;27;20039;-75
2022/03/09 08:50:54;;;;;;;10.02;2.80;;;18.10;70.90;;;;;;5151778;27;20058;-75
2022/03/09 08:53:21;;;;;;;8.07;2.50;;;19.10;62.60;;;;;;5152415;27;20103;-75
2022/03/09 08:55:47;;;;;;;7.13;2.50;;;21.90;48.90;;;;;;5150725;27;20169;-75
2022/03/09 08:58:14;;;;;;;9.40;2.90;;;24.30;42.10;;;;;;5150561;27;20497;-76
2022/03/09 09:00:39;;;;;;;7.13;2.80;;;25.10;38.20;;;;;;5149691;27;20027;-75
2022/03/09 09:03:05;;;;;;;9.80;3.17;;;23.80;39.40;;;;;;5150710;27;20079;-75
2022/03/09 09:05:31;;;;;;;7.85;2.92;;;23.90;38.50;;;;;;5150611;27;20023;-75
2022/03/09 09:07:57;;;;;;;8.00;2.92;;;22.50;42.80;;;;;;5148825;27;20035;-75
2022/03/09 09:10:23;;;;;;;9.05;2.92;;;23.70;39.50;;;;;;5148462;27;20061;-75
2022/03/09 09:12:50;;;;;;;11.70;3.10;;;23.30;38.50;;;;;;5148667;27;20072;-75
2022/03/09 09:15:16;;;;;;;10.88;3.47;;;20.90;44.60;;;;;;5149099;27;20094;-75
2022/03/09 09:17:42;;;;;;;10.80;3.50;;;19.30;50.60;;;;;;5152186;27;20023;-74
2022/03/09 09:20:09;;;;;;;10.52;4.00;;;17.90;57.10;;;;;;5148367;27;20034;-75
2022/03/09 09:22:35;;;;;;;9.18;4.20;;;17.10;62.10;;;;;;5147796;27;20489;-74
2022/03/09 09:25:01;;;;;;;14.38;4.82;;;18.20;57.30;;;;;;5148017;27;20031;-74
2022/03/09 09:27:28;;;;;;;13.35;5.22;;;18.00;58.60;;;;;;5150345;27;20023;-74
2022/03/09 09:29:54;;;;;;;12.23;3.90;;;18.20;57.60;;;;;;5151454;27;20037;-74
2022/03/09 09:32:20;;;;;;;6.00;2.40;;;21.00;46.90;;;;;;5149484;27;20011;-75
2022/03/09 09:34:46;;;;;;;7.45;2.80;;;19.70;46.50;;;;;;5130134;27;20133;-75
2022/03/09 09:37:11;;;;;;;6.40;2.80;;;20.10;46.50;;;;;;5149626;27;20031;-75
2022/03/09 09:39:37;;;;;;;9.35;2.95;;;23.80;38.60;;;;;;5149950;27;20030;-75
2022/03/09 09:42:03;;;;;;;7.85;3.33;;;23.00;39.30;;;;;;5150473;27;20105;-75
2022/03/09 09:44:30;;;;;;;12.80;3.58;;;23.60;40.20;;;;;;5149531;27;20031;-75
2022/03/09 09:46:56;;;;;;;8.60;3.38;;;26.50;35.10;;;;;;5147682;27;20493;-75
2022/03/09 09:49:24;;;;;;;12.27;3.58;;;26.00;34.10;;;;;;5149244;27;20033;-75
2022/03/09 09:51:52;;;;;;;10.15;3.88;;;25.00;35.00;;;;;;5147281;27;20022;-75
2022/03/09 09:54:18;;;;;;;10.18;3.22;;;25.50;35.10;;;;;;5146915;27;20561;-74
2022/03/09 09:56:44;;;;;;;8.90;2.80;;;26.40;32.50;;;;;;5150931;27;20076;-75
2022/03/09 09:59:11;;;;;;;9.05;2.83;;;28.00;30.00;;;;;;5147019;27;20026;-75
2022/03/09 10:01:38;;;;;;;9.57;3.63;;;25.50;32.30;;;;;;5147179;27;20437;-75
2022/03/09 10:04:05;;;;;;;9.75;3.38;;;23.80;36.10;;;;;;5147424;27;20023;-75
2022/03/09 10:06:31;;;;;;;10.73;3.88;;;25.90;33.80;;;;;;5148153;27;20046;-77
2022/03/09 10:09:12;;;;;;;9.85;4.10;;;26.30;31.20;;;;;;5149302;27;20472;-75
2022/03/09 10:11:54;;;;;;;11.95;5.35;;;26.20;32.20;;;;;;5149664;27;20405;-76
2022/03/09 10:14:40;;;;;;;13.00;5.57;;;27.50;30.10;;;;;;5149605;27;20102;-75
2022/03/09 10:17:12;;;;;;;12.27;5.80;;;28.40;28.50;;;;;;5146000;27;20087;-74
2022/03/09 10:19:43;;;;;;;11.35;4.07;;;26.40;31.10;;;;;;5147898;27;20026;-74
2022/03/09 10:22:28;;;;;;;9.98;4.50;;;24.20;34.80;;;;;;5146801;27;20019;-75
2022/03/09 10:24:56;;;;;;;14.90;4.80;;;25.20;35.10;;;;;;5125543;27;20042;-75
2022/03/09 10:27:36;;;;;;;8.27;3.60;;;28.10;30.60;;;;;;5147304;27;20026;-75
2022/03/09 10:30:05;;;;;;;11.02;3.70;;;31.10;27.10;;;;;;5148348;27;20034;-76
2022/03/09 10:32:51;;;;;;;9.02;3.88;;;32.60;25.30;;;;;;5148663;27;20022;-76
2022/03/09 10:35:40;;;;;;;7.40;3.75;;;31.40;26.40;;;;;;5130941;27;20034;-75
2022/03/09 10:38:22;;;;;;;13.10;5.32;;;32.20;25.10;;;;;;5146622;27;20134;-75
2022/03/09 10:40:55;;;;;;;8.80;4.05;;;30.70;26.80;;;;;;5146891;27;20030;-75
2022/03/09 10:43:28;;;;;;;9.70;4.60;;;29.60;26.90;;;;;;5146740;27;20022;-75
2022/03/09 10:46:06;;;;;;;10.05;4.00;;;30.90;26.60;;;;;;5147020;27;20568;-75
2022/03/09 10:48:49;;;;;;;10.15;3.47;;;32.10;25.50;;;;;;5147180;27;20103;-75
2022/03/09 10:51:38;;;;;;;10.43;3.30;;;29.20;27.70;;;;;;5148740;27;20025;-75
2022/03/09 10:54:06;;;;;;;11.18;3.72;;;30.80;26.90;;;;;;5145813;27;20023;-75
2022/03/09 10:56:33;;;;;;;8.65;3.03;;;30.90;26.70;;;;;;5148315;27;20037;-75
2022/03/09 10:59:20;;;;;;;8.98;3.67;;;32.40;24.80;;;;;;5148731;27;20078;-75
2022/03/09 11:02:04;;;;;;;11.02;4.53;;;33.00;23.60;;;;;;5146499;27;20497;-75
2022/03/09 11:04:30;;;;;;;11.60;3.70;;;33.50;23.20;;;;;;5146596;27;20026;-75
2022/03/09 11:06:57;;;;;;;10.50;3.60;;;33.90;23.00;;;;;;5145866;27;20530;-76
2022/03/09 11:09:23;;;;;;;7.60;3.65;;;34.90;22.50;;;;;;5146493;27;20397;-76
2022/03/09 11:11:49;;;;;;;9.00;3.50;;;35.20;22.00;;;;;;5150616;27;20031;-76
2022/03/09 11:14:18;;;;;;;10.07;4.65;;;35.70;21.50;;;;;;5146732;27;20035;-76
2022/03/09 11:16:46;;;;;;;11.27;4.75;;;34.10;22.30;;;;;;5146425;27;20019;-76
2022/03/09 11:19:15;;;;;;;11.23;4.93;;;34.70;22.10;;;;;;5146760;27;20515;-75
2022/03/09 11:21:42;;;;;;;10.40;3.97;;;34.20;22.20;;;;;;5146246;27;20114;-75
2022/03/09 11:24:10;;;;;;;11.93;3.28;;;33.70;22.60;;;;;;5149280;27;20026;-76
2022/03/09 11:26:46;;;;;;;10.73;3.60;;;34.40;22.00;;;;;;5153113;27;20402;-76
2022/03/09 11:29:13;;;;;;;8.95;2.90;;;34.10;22.40;;;;;;5150095;27;20497;-75
2022/03/09 11:31:50;;;;;;;9.57;2.85;;;32.30;23.30;;;;;;5151391;27;20030;-79
2022/03/09 11:34:44;;;;;;;8.52;3.15;;;30.90;24.80;;;;;;5150491;27;20109;-77
2022/03/09 11:37:32;;;;;;;7.28;2.97;;;29.10;26.20;;;;;;5151683;27;20043;-79
2022/03/09 11:40:10;;;;;;;9.18;2.97;;;30.60;25.20;;;;;;5149822;27;20038;-76
2022/03/09 11:42:41;;;;;;;8.75;3.08;;;30.70;25.00;;;;;;5144921;27;20118;-74
2022/03/09 11:45:16;;;;;;;10.43;3.30;;;31.20;25.00;;;;;;5152140;27;20068;-74
2022/03/09 11:48:09;;;;;;;8.60;3.10;;;32.90;23.40;;;;;;5151691;27;20042;-75
2022/03/09 11:50:48;;;;;;;8.32;2.58;;;33.90;22.20;;;;;;5152307;27;20453;-76
2022/03/09 11:53:34;;;;;;;7.82;2.80;;;33.40;22.00;;;;;;5149885;27;20125;-77
2022/03/09 11:56:24;;;;;;;10.38;3.10;;;33.70;21.70;;;;;;5149869;27;20059;-76
2022/03/09 11:59:15;;;;;;;6.47;2.35;;;33.30;22.30;;;;;;5138894;27;20051;-75
2022/03/09 12:01:58;;;;;;;7.72;2.30;;;33.50;21.20;;;;;;5149111;27;20034;-75
2022/03/09 12:04:42;;;;;;;8.65;2.97;;;34.50;20.40;;;;;;5150658;27;20049;-75
2022/03/09 12:07:09;;;;;;;8.60;2.10;;;35.40;20.50;;;;;;5150041;27;20031;-75
2022/03/09 12:09:54;;;;;;;9.10;1.92;;;35.60;19.30;;;;;;5150358;27;20034;-76
2022/03/09 12:12:20;;;;;;;7.32;2.17;;;34.80;19.90;;;;;;5133695;27;20030;-76
2022/03/09 12:15:01;;;;;;;8.63;2.40;;;35.30;19.70;;;;;;5134236;27;20023;-75
2022/03/09 12:17:32;;;;;;;7.15;2.05;;;34.60;19.80;;;;;;5152981;27;20029;-75
2022/03/09 12:20:21;;;;;;;6.13;1.80;;;33.20;20.70;;;;;;5149426;27;20042;-78
2022/03/09 12:22:55;;;;;;;8.07;2.05;;;32.10;21.30;;;;;;5116667;27;20430;-76
2022/03/09 12:25:46;;;;;;;8.13;1.98;;;31.40;22.00;;;;;;5148269;27;20549;-75
2022/03/09 12:30:54;;;;;;;6.90;1.67;;;31.50;22.60;;;;;;5143184;27;20079;-77
2022/03/09 12:33:34;;;;;;;5.00;1.52;;;30.90;22.30;;;;;;5149584;27;20030;-76
2022/03/09 12:36:13;;;;;;;7.75;1.80;;;31.30;22.20;;;;;;5148550;27;20043;-77
2022/03/09 12:38:46;;;;;;;11.35;2.20;;;31.60;22.10;;;;;;5151081;27;20438;-75
2022/03/09 12:41:41;;;;;;;10.90;1.90;;;31.20;22.00;;;;;;5148393;27;20027;-75
2022/03/09 12:44:13;;;;;;;8.50;1.98;;;30.20;23.40;;;;;;5135795;27;20047;-75
2022/03/09 12:46:41;;;;;;;6.50;1.70;;;29.60;23.90;;;;;;5150770;27;20019;-74
2022/03/09 12:49:09;;;;;;;4.22;1.40;;;29.90;24.00;;;;;;5139349;27;20050;-74
2022/03/09 12:51:37;;;;;;;5.00;1.50;;;29.40;23.20;;;;;;5151316;27;20102;-74
2022/03/09 12:54:03;;;;;;;7.63;1.60;;;29.00;24.20;;;;;;5130185;27;20045;-74
2022/03/09 12:56:30;;;;;;;7.63;1.63;;;29.00;24.00;;;;;;5150160;27;20572;-74
2022/03/09 12:59:14;;;;;;;4.28;1.40;;;28.40;24.20;;;;;;5151125;27;20021;-74
2022/03/09 13:01:40;;;;;;;6.00;1.60;;;28.00;24.30;;;;;;5148986;27;20041;-74
2022/03/09 13:04:06;;;;;;;6.10;1.40;;;28.20;24.80;;;;;;5148511;27;20042;-74
2022/03/09 13:06:35;;;;;;;7.15;1.60;;;28.50;24.30;;;;;;5148006;27;20024;-74
2022/03/09 13:09:18;;;;;;;6.90;1.70;;;28.20;24.80;;;;;;5150473;27;20133;-74
2022/03/09 13:11:44;;;;;;;6.63;1.60;;;28.00;24.80;;;;;;5132879;27;20027;-74
2022/03/09 13:14:17;;;;;;;5.53;1.50;;;27.90;25.30;;;;;;5147867;27;20034;-74
2022/03/09 13:16:43;;;;;;;6.97;1.88;;;27.70;25.70;;;;;;5129982;27;20046;-74
2022/03/09 13:19:09;;;;;;;5.47;1.80;;;27.20;25.90;;;;;;5148386;27;20054;-74
2022/03/09 13:21:35;;;;;;;4.97;2.30;;;26.60;26.20;;;;;;5148194;27;20030;-74
2022/03/09 13:24:04;;;;;;;3.92;1.17;;;26.40;26.60;;;;;;5150624;27;20023;-74
2022/03/09 13:26:42;;;;;;;5.22;1.45;;;26.20;26.90;;;;;;5152007;27;20163;-74
2022/03/09 13:29:19;;;;;;;4.97;1.40;;;25.50;27.30;;;;;;5149988;27;20081;-74
2022/03/09 13:31:49;;;;;;;6.80;1.50;;;25.10;28.30;;;;;;5149726;27;20114;-74
2022/03/09 13:34:19;;;;;;;7.30;1.70;;;24.80;28.20;;;;;;5147746;27;20098;-74
2022/03/09 13:36:44;;;;;;;13.57;1.52;;;24.40;28.90;;;;;;5149403;27;20022;-74
2022/03/09 13:39:12;;;;;;;7.57;1.48;;;24.40;28.70;;;;;;5149350;27;20046;-74
2022/03/09 13:41:40;;;;;;;7.25;2.05;;;24.10;28.90;;;;;;5150227;27;20026;-74
2022/03/09 13:44:29;;;;;;;6.05;1.88;;;24.10;29.40;;;;;;5147863;27;20033;-74
2022/03/09 13:47:06;;;;;;;3.97;1.60;;;24.40;29.50;;;;;;5147115;27;20022;-74
2022/03/09 13:50:01;;;;;;;5.25;1.90;;;24.80;28.50;;;;;;5147399;27;20113;-74
2022/03/09 13:52:35;;;;;;;6.47;1.60;;;25.10;27.70;;;;;;5127322;27;20143;-74
2022/03/09 13:55:04;;;;;;;6.75;1.60;;;25.00;28.00;;;;;;5148512;27;20488;-74
2022/03/09 13:57:35;;;;;;;5.70;1.35;;;24.80;28.50;;;;;;5129337;27;20023;-74
2022/03/09 14:00:09;;;;;;;4.03;1.30;;;24.30;29.00;;;;;;5131725;27;20503;-74
2022/03/09 14:02:35;;;;;;;4.10;1.30;;;23.90;29.30;;;;;;5149635;27;20085;-74
2022/03/09 14:05:01;;;;;;;3.95;1.10;;;23.70;29.70;;;;;;5147710;27;20022;-74
2022/03/09 14:07:37;;;;;;;4.30;1.17;;;24.10;29.40;;;;;;5149070;27;20030;-74
2022/03/09 14:10:12;;;;;;;3.17;1.00;;;24.20;28.70;;;;;;5149703;27;20038;-74
2022/03/09 14:12:43;;;;;;;3.92;1.30;;;24.40;28.60;;;;;;5129360;27;20123;-74
2022/03/09 14:15:11;;;;;;;6.03;1.30;;;24.50;28.60;;;;;;5148884;27;20042;-74
2022/03/09 14:17:37;;;;;;;4.82;1.30;;;24.80;28.40;;;;;;5150101;27;20499;-74
2022/03/09 14:20:03;;;;;;;2.92;0.95;;;25.60;27.90;;;;;;5147373;27;20105;-75
2022/03/09 14:22:40;;;;;;;4.47;1.10;;;26.00;26.50;;;;;;5147903;27;20025;-75
2022/03/09 14:25:06;;;;;;;5.18;0.93;;;25.80;26.20;;;;;;5147173;27;20027;-74
2022/03/09 14:27:32;;;;;;;3.25;1.10;;;25.40;26.30;;;;;;5147225;27;20027;-75
2022/03/09 14:29:58;;;;;;;4.32;1.20;;;25.10;26.90;;;;;;5149352;27;20022;-75
2022/03/09 14:32:25;;;;;;;4.97;1.23;;;24.90;27.60;;;;;;5148138;27;20508;-74
2022/03/09 14:34:50;;;;;;;5.72;1.73;;;25.00;27.50;;;;;;5149175;27;20022;-74
2022/03/09 14:37:16;;;;;;;4.28;1.30;;;24.70;27.70;;;;;;5148814;27;20404;-74
2022/03/09 14:39:43;;;;;;;4.97;1.30;;;24.10;28.50;;;;;;5148628;27;20076;-75
2022/03/09 14:42:09;;;;;;;4.07;1.30;;;23.60;29.30;;;;;;5149594;27;20524;-74
2022/03/09 14:44:36;;;;;;;3.30;1.45;;;23.50;29.60;;;;;;5148715;27;20027;-74
2022/03/09 14:47:02;;;;;;;5.60;1.20;;;23.20;30.00;;;;;;5146757;27;20200;-74
2022/03/09 14:49:28;;;;;;;3.55;1.20;;;23.00;30.50;;;;;;5146746;27;20035;-74
2022/03/09 14:51:54;;;;;;;5.45;1.48;;;22.80;31.30;;;;;;5146518;27;20048;-73
2022/03/09 14:54:20;;;;;;;5.63;1.40;;;22.40;31.20;;;;;;5147259;27;20029;-74
2022/03/09 14:56:46;;;;;;;5.43;1.20;;;22.40;32.10;;;;;;5150675;27;20027;-74
2022/03/09 14:59:12;;;;;;;4.72;1.42;;;22.10;32.30;;;;;;5145552;27;20027;-75
2022/03/09 15:01:39;;;;;;;4.32;1.15;;;21.70;32.50;;;;;;5151040;27;20393;-76
2022/03/09 15:04:05;;;;;;;5.88;1.42;;;21.80;32.70;;;;;;5152287;27;20068;-76
2022/03/09 15:06:31;;;;;;;3.90;1.40;;;21.80;32.80;;;;;;5149998;27;20040;-78
2022/03/09 15:09:00;;;;;;;5.25;1.33;;;21.90;32.90;;;;;;5154121;27;20867;-75
2022/03/09 15:11:26;;;;;;;5.43;1.45;;;22.00;32.50;;;;;;5153911;27;20079;-75
2022/03/09 15:13:52;;;;;;;7.22;1.40;;;22.20;32.30;;;;;;5156233;27;20377;-75
